Wyocena, WI

7:57 AM CDT on August 27, 2014 (GMT -0500)
Dodge County | Change Station
CLOSE
Current Station
Airport
Location: Juneau,
Elevation: 935 ft
Nearby Weather Stations

Elev 935 ft 43.43 °N, 88.70 °W | Updated 22 minutes ago

Scattered Clouds
Scattered Clouds
62 °F
Feels Like 62 °F
N
4
Wind Variable Wind from NE

Today
High -- | Low -- °F
--% Chance of Precip.
Yesterday
High -- | Low -- °F
Precip. -- in
6:15 AM 7:41 PM
Waxing Crescent, 3% visible
Pressure 30.17 in
Visibility 10.0 miles
Clouds Scattered Clouds 11000 ft
Dew Point 58 °F
Humidity 88%
Rainfall 0.00 in
Snow Depth Not available.
UV 1 out of 12
Pollen 9.60 out of 12
Air Quality Not available.
Flu Activity Not available.
METAR KUNU 271235Z AUTO 05003KT 10SM SCT110 17/15 A3017 RMK AO2 T01650145

More Conditions Fewer Conditions

Pressure 30.17 in
Visibility 10.0 miles
Clouds Scattered Clouds 11000 ft
Dew Point 58 °F
Humidity 88%
Rainfall 0.00 in
Snow Depth Not available.
UV 1 out of 12
Pollen 9.60 out of 12
Air Quality Not available.
Flu Activity Not available.
METAR KUNU 271235Z AUTO 05003KT 10SM SCT110 17/15 A3017 RMK AO2 T01650145

More Conditions Fewer Conditions

10-Day Weather Forecast

Almanac

Astronomy

Aug. 27, 2014 Rise Set
Actual Time 6:15 AM CDT 7:41 PM CDT
Civil Twilight 5:45 AM CDT 8:10 PM CDT
Nautical Twilight 5:09 AM CDT 8:46 PM CDT
Astronomical Twilight 4:31 AM CDT 9:24 PM CDT
Moon 8:16 AM CDT 8:27 PM CDT
Length of Visible Light 14h 25m
Length of Day
13h 25m
Tomorrow will be 2m 48s shorter.
Waxing Crescent, 3% of the Moon is Illuminated
Today
Waxing Crescent
Sep 2
First Quarter
Sep 8
Full
Sep 15
Last Quarter
Sep 24
New

Today's Extremes

State Highs State Lows

Community

WunderPhotos

Upload Photos

1,747,676 photos uploaded!

Nearby

Snow Depth

Station Depth Elevation
No new snow has been reported.

Earthquake Activity

City Distance Mag. Time & Date
No recent earthquake activity has been reported nearby.
Minimum magnitude displayed is 2.5.

Coastal Water Temperatures

Place Temperature
No Stations Reporting

Nearby Weather Stations